createdAt,value
2018-08-20T00:07:17.537Z,17.60
2018-08-20T00:09:45.446Z,15.40
2018-08-20T00:12:13.385Z,15.63
2018-08-20T00:14:42.245Z,14.43
2018-08-20T00:17:10.169Z,14.80
2018-08-20T00:19:40.806Z,15.57
2018-08-20T00:22:09.186Z,16.10
2018-08-20T00:24:37.118Z,14.55
2018-08-20T00:27:05.105Z,14.00
2018-08-20T00:29:35.481Z,15.30
2018-08-20T00:32:03.459Z,14.10
2018-08-20T00:34:31.321Z,14.57
2018-08-20T00:36:59.290Z,15.25
2018-08-20T00:39:27.305Z,13.40
2018-08-20T00:41:55.217Z,13.73
2018-08-20T00:44:23.154Z,13.85
2018-08-20T00:46:51.100Z,12.80
2018-08-20T00:49:19.089Z,12.20
2018-08-20T00:51:47.158Z,12.40
2018-08-20T00:54:15.089Z,12.33
2018-08-20T00:56:42.990Z,11.67
2018-08-20T01:01:45.730Z,11.30
2018-08-20T01:04:13.792Z,12.50
2018-08-20T01:09:09.417Z,11.00
2018-08-20T01:11:37.654Z,11.33
2018-08-20T01:14:05.622Z,11.10
2018-08-20T01:16:33.658Z,10.60
2018-08-20T01:19:01.639Z,10.35
2018-08-20T01:21:29.594Z,10.25
2018-08-20T01:23:57.586Z,10.53
2018-08-20T01:26:25.591Z,11.37
2018-08-20T01:28:53.486Z,11.10
2018-08-20T01:31:21.491Z,10.30
2018-08-20T01:33:49.428Z,9.85
2018-08-20T01:36:17.405Z,10.60
2018-08-20T01:38:45.341Z,11.13
2018-08-20T01:43:44.061Z,10.60
2018-08-20T01:46:12.088Z,11.07
2018-08-20T01:48:40.073Z,10.67
2018-08-20T01:51:08.071Z,10.40
2018-08-20T01:53:36.070Z,10.27
2018-08-20T01:56:03.993Z,10.80
2018-08-20T01:58:31.935Z,10.40
2018-08-20T02:00:59.926Z,10.30
2018-08-20T02:03:27.969Z,9.70
2018-08-20T02:05:56.003Z,10.23
2018-08-20T02:08:24.029Z,10.30
2018-08-20T02:10:52.973Z,9.60
2018-08-20T02:13:22.063Z,10.10
2018-08-20T02:15:50.092Z,10.07
2018-08-20T02:18:18.067Z,9.10
2018-08-20T02:20:46.049Z,9.53
2018-08-20T02:23:14.909Z,9.25
2018-08-20T02:25:43.739Z,9.57
2018-08-20T02:28:11.662Z,9.90
2018-08-20T02:30:39.747Z,9.30
2018-08-20T02:33:07.665Z,8.90
2018-08-20T02:35:35.641Z,9.70
2018-08-20T02:38:03.635Z,9.05
2018-08-20T02:45:26.912Z,9.50
2018-08-20T02:47:54.803Z,9.27
2018-08-20T02:50:22.790Z,9.27
2018-08-20T02:52:50.791Z,9.47
2018-08-20T02:55:18.737Z,10.10
2018-08-20T02:57:46.686Z,9.80
2018-08-20T03:00:14.902Z,9.67
2018-08-20T03:02:42.837Z,10.17
2018-08-20T03:05:11.680Z,9.97
2018-08-20T03:07:39.560Z,10.67
2018-08-20T03:10:08.485Z,10.17
2018-08-20T03:12:36.819Z,10.70
2018-08-20T03:15:05.089Z,10.70
2018-08-20T03:17:32.968Z,10.87
2018-08-20T03:20:01.072Z,10.90
2018-08-20T03:22:29.038Z,10.85
2018-08-20T03:24:57.032Z,11.87
2018-08-20T03:27:25.088Z,10.65
2018-08-20T03:32:34.997Z,10.77
2018-08-20T03:39:57.282Z,11.23
2018-08-20T03:44:52.761Z,10.90
2018-08-20T03:47:20.826Z,12.00
2018-08-20T03:49:49.061Z,11.90
2018-08-20T03:52:16.956Z,10.70
2018-08-20T03:54:44.920Z,10.60
2018-08-20T03:57:12.915Z,11.30
2018-08-20T03:59:40.850Z,11.70
2018-08-20T04:02:09.018Z,11.15
2018-08-20T04:04:37.210Z,11.90
2018-08-20T04:07:06.384Z,11.70
2018-08-20T04:09:34.616Z,11.40
2018-08-20T04:12:03.481Z,11.20
2018-08-20T04:14:31.502Z,11.33
2018-08-20T04:16:59.829Z,11.53
2018-08-20T04:19:28.075Z,11.93
2018-08-20T04:21:56.177Z,10.97
2018-08-20T04:24:24.083Z,11.50
2018-08-20T04:26:52.182Z,11.90
2018-08-20T04:29:20.637Z,11.40
2018-08-20T04:31:48.542Z,12.60
2018-08-20T04:34:16.697Z,11.90
2018-08-20T04:36:44.845Z,12.13
2018-08-20T04:39:12.762Z,12.60
2018-08-20T04:41:40.917Z,12.00
2018-08-20T04:44:09.062Z,12.00
2018-08-20T04:46:37.211Z,12.30
2018-08-20T04:49:05.080Z,12.10
2018-08-20T04:51:32.975Z,12.20
2018-08-20T04:56:41.901Z,12.70
2018-08-20T04:59:10.797Z,12.80
2018-08-20T05:01:38.816Z,12.33
2018-08-20T05:23:44.038Z,12.80
2018-08-20T05:26:11.954Z,12.97
2018-08-20T05:31:07.193Z,12.60
2018-08-20T05:40:56.607Z,13.05
2018-08-20T05:43:24.599Z,12.60
2018-08-20T05:45:52.554Z,12.15
2018-08-20T06:10:25.739Z,13.60
2018-08-20T06:52:10.959Z,12.50
2018-08-20T07:06:54.698Z,11.80
2018-08-20T07:09:22.568Z,12.43
2018-08-20T07:11:50.494Z,12.30
2018-08-20T07:14:18.400Z,11.90
2018-08-20T07:16:46.301Z,11.47
2018-08-20T07:21:41.442Z,12.20
2018-08-20T07:26:36.601Z,11.65
2018-08-20T07:29:04.495Z,11.50
2018-08-20T07:31:32.480Z,11.00
2018-08-20T07:34:00.430Z,10.17
2018-08-20T07:36:28.466Z,10.57
2018-08-20T07:38:56.392Z,11.60
2018-08-20T07:41:24.362Z,10.25
2018-08-20T07:43:52.292Z,10.45
2018-08-20T07:46:20.255Z,9.97
2018-08-20T07:48:48.172Z,9.10
2018-08-20T07:51:16.239Z,9.33
2018-08-20T07:53:44.202Z,9.40
2018-08-20T07:56:12.261Z,9.43
2018-08-20T07:58:40.246Z,10.10
2018-08-20T08:01:08.240Z,9.73
2018-08-20T08:03:36.133Z,9.83
2018-08-20T08:06:05.143Z,8.30
2018-08-20T08:08:34.358Z,9.47
2018-08-20T08:11:02.237Z,10.60
2018-08-20T08:13:30.253Z,10.03
2018-08-20T08:15:58.168Z,10.20
2018-08-20T08:18:26.168Z,10.30
2018-08-20T08:20:54.165Z,9.80
2018-08-20T08:23:22.223Z,9.65
2018-08-20T08:25:50.120Z,9.70
2018-08-20T08:28:18.014Z,10.37
2018-08-20T08:30:45.950Z,10.45
2018-08-20T08:33:14.020Z,10.33
2018-08-20T08:35:41.904Z,8.55
2018-08-20T08:38:09.836Z,8.13
2018-08-20T08:40:37.789Z,8.20
2018-08-20T08:43:05.674Z,8.57
2018-08-20T08:55:22.126Z,6.10
2018-08-20T08:57:50.155Z,6.03
2018-08-20T09:02:45.819Z,6.53
2018-08-20T09:05:13.825Z,6.20
2018-08-20T09:10:10.386Z,6.93
2018-08-20T09:12:38.361Z,6.53
2018-08-20T09:17:33.468Z,7.60
2018-08-20T09:20:01.381Z,6.77
2018-08-20T09:22:29.348Z,6.60
2018-08-20T09:27:24.353Z,7.15
2018-08-20T09:32:19.418Z,6.80
2018-08-20T09:34:47.394Z,6.53
2018-08-20T09:56:54.054Z,5.85
2018-08-20T10:26:20.038Z,5.00
2018-08-20T10:31:15.145Z,5.20
2018-08-20T10:36:10.198Z,4.60
2018-08-20T10:41:06.193Z,5.50
2018-08-20T10:43:35.097Z,5.80
2018-08-20T10:46:08.505Z,6.00
2018-08-20T10:48:36.437Z,6.37
2018-08-20T10:53:31.468Z,5.30
2018-08-20T10:58:26.476Z,5.20
2018-08-20T11:00:54.382Z,5.85
2018-08-20T11:03:22.285Z,5.95
2018-08-20T11:18:06.908Z,5.00
2018-08-20T11:45:25.022Z,4.10
2018-08-20T11:53:06.314Z,3.60
2018-08-20T11:58:01.321Z,3.90
2018-08-20T12:00:29.227Z,3.47
2018-08-20T12:02:57.152Z,3.30
2018-08-20T12:22:37.851Z,3.70
2018-08-20T12:25:06.100Z,3.85
2018-08-20T12:27:34.167Z,3.70
2018-08-20T12:42:17.808Z,3.75
2018-08-20T12:44:45.685Z,4.00
2018-08-20T12:47:13.517Z,3.25
2018-08-20T12:52:08.705Z,3.00
2018-08-20T12:59:30.975Z,4.00
2018-08-20T13:01:58.823Z,3.47
2018-08-20T13:06:53.837Z,3.30
2018-08-20T13:09:21.708Z,3.60
2018-08-20T13:11:49.606Z,3.60
2018-08-20T13:16:44.577Z,3.50
2018-08-20T13:21:39.564Z,4.00
2018-08-20T13:24:07.458Z,3.55
2018-08-20T13:26:35.381Z,4.20
2018-08-20T13:29:03.217Z,3.95
2018-08-20T13:38:52.305Z,3.57
2018-08-20T13:41:20.305Z,4.30
2018-08-20T13:43:48.183Z,4.20
2018-08-20T13:46:16.075Z,3.97
2018-08-20T13:48:43.912Z,3.80
2018-08-20T13:51:11.804Z,3.83
2018-08-20T13:58:34.097Z,3.90
2018-08-20T14:01:02.492Z,3.60
2018-08-20T14:03:30.390Z,3.40
2018-08-20T14:05:58.222Z,3.47
2018-08-20T14:10:53.207Z,3.45
2018-08-20T14:13:21.044Z,3.50
2018-08-20T14:15:48.972Z,3.30
2018-08-20T14:18:16.870Z,3.15
2018-08-20T14:20:52.152Z,3.40
2018-08-20T14:23:20.036Z,3.40
2018-08-20T14:33:09.206Z,3.70
2018-08-20T14:35:37.115Z,3.30
2018-08-20T14:40:32.038Z,3.20
2018-08-20T14:42:59.980Z,3.10
2018-08-20T14:47:59.320Z,3.50
2018-08-20T15:07:37.943Z,3.95
2018-08-20T15:10:06.417Z,4.60
2018-08-20T15:12:34.284Z,4.30
2018-08-20T15:22:23.798Z,4.90
2018-08-20T15:27:18.887Z,4.90
2018-08-20T15:29:46.871Z,4.90
2018-08-20T15:34:41.876Z,4.60
2018-08-20T15:37:09.858Z,4.80
2018-08-20T15:39:37.828Z,5.20
2018-08-20T15:42:05.689Z,4.77
2018-08-20T15:44:33.685Z,5.07
2018-08-20T15:47:01.711Z,4.70
2018-08-20T15:49:29.656Z,4.50
2018-08-20T15:51:57.558Z,4.30
2018-08-20T15:54:25.390Z,4.40
2018-08-20T15:56:53.320Z,4.20
2018-08-20T15:59:21.255Z,4.37
2018-08-20T16:01:49.097Z,4.55
2018-08-20T16:04:16.981Z,4.30
2018-08-20T16:06:44.924Z,4.60
2018-08-20T16:09:12.791Z,4.30
2018-08-20T16:11:40.703Z,4.37
2018-08-20T16:14:08.618Z,4.60
2018-08-20T16:16:36.651Z,4.50
2018-08-20T16:19:04.778Z,4.30
2018-08-20T16:21:32.669Z,4.20
2018-08-20T16:24:00.613Z,4.70
2018-08-20T16:26:28.439Z,4.50
2018-08-20T16:28:56.479Z,4.40
2018-08-20T16:31:24.462Z,4.40
2018-08-20T16:33:52.741Z,4.27
2018-08-20T16:36:20.654Z,4.10
2018-08-20T16:41:15.702Z,4.10
2018-08-20T16:43:43.572Z,3.80
2018-08-20T16:46:11.621Z,4.13
2018-08-20T16:48:39.507Z,4.10
2018-08-20T16:51:07.446Z,4.20
2018-08-20T16:53:35.283Z,4.40
2018-08-20T16:56:03.165Z,3.80
2018-08-20T16:58:31.110Z,4.80
2018-08-20T17:00:58.973Z,4.67
2018-08-20T17:03:27.032Z,4.30
2018-08-20T17:05:56.290Z,3.95
2018-08-20T17:08:28.549Z,4.20
2018-08-20T17:10:56.576Z,4.63
2018-08-20T17:13:24.424Z,4.23
2018-08-20T17:15:52.495Z,4.30
2018-08-20T17:18:20.562Z,4.60
2018-08-20T17:20:48.459Z,4.30
2018-08-20T17:23:20.966Z,4.03
2018-08-20T17:25:48.866Z,4.17
2018-08-20T17:28:19.403Z,4.30
2018-08-20T17:30:47.578Z,4.10
2018-08-20T17:33:15.508Z,4.27
2018-08-20T17:35:43.800Z,4.00
2018-08-20T17:38:11.757Z,4.90
2018-08-20T17:40:40.218Z,4.03
2018-08-20T17:43:08.837Z,4.57
2018-08-20T17:45:36.809Z,4.63
2018-08-20T17:48:04.813Z,4.40
2018-08-20T17:50:39.090Z,4.47
2018-08-20T17:53:07.224Z,4.37
2018-08-20T17:55:35.300Z,4.43
2018-08-20T17:58:03.189Z,5.40
2018-08-20T18:00:39.981Z,4.90
2018-08-20T18:03:09.384Z,5.27
2018-08-20T18:05:37.261Z,4.80
2018-08-20T18:08:05.158Z,4.80
2018-08-20T18:10:33.116Z,4.90
2018-08-20T18:13:01.026Z,5.10
2018-08-20T18:15:28.881Z,7.07
2018-08-20T18:17:56.776Z,4.90
2018-08-20T18:20:24.686Z,4.93
2018-08-20T18:22:53.527Z,5.60
2018-08-20T18:25:21.942Z,6.90
2018-08-20T18:27:49.854Z,4.90
2018-08-20T18:30:17.799Z,4.80
2018-08-20T18:32:45.875Z,5.33
2018-08-20T18:35:16.672Z,5.20
2018-08-20T18:37:50.962Z,4.90
2018-08-20T18:40:18.937Z,5.30
2018-08-20T18:42:47.160Z,5.90
2018-08-20T18:45:15.072Z,5.20
2018-08-20T18:47:43.081Z,5.10
2018-08-20T18:50:11.689Z,5.00
2018-08-20T18:52:39.614Z,5.00
2018-08-20T18:55:07.928Z,5.10
2018-08-20T18:57:36.977Z,5.70
2018-08-20T19:02:33.594Z,5.43
2018-08-20T19:05:01.510Z,5.83
2018-08-20T19:07:31.344Z,5.10
2018-08-20T19:09:59.282Z,5.67
2018-08-20T19:12:27.282Z,5.10
2018-08-20T19:14:55.116Z,5.10
2018-08-20T19:17:25.959Z,5.73
2018-08-20T19:19:53.975Z,5.33
2018-08-20T19:22:28.637Z,5.60
2018-08-20T19:24:56.573Z,5.65
2018-08-20T19:27:26.517Z,5.93
2018-08-20T19:29:54.371Z,6.27
2018-08-20T19:32:22.248Z,5.70
2018-08-20T19:34:50.126Z,4.87
2018-08-20T19:37:18.104Z,5.35
2018-08-20T19:39:46.020Z,5.07
2018-08-20T19:42:14.234Z,5.07
2018-08-20T19:44:43.127Z,5.47
2018-08-20T19:47:11.082Z,5.60
2018-08-20T19:49:38.986Z,5.50
2018-08-20T19:52:06.870Z,5.60
2018-08-20T19:54:34.750Z,5.37
2018-08-20T19:57:02.578Z,5.50
2018-08-20T19:59:35.957Z,5.17
2018-08-20T20:02:04.084Z,5.40
2018-08-20T20:04:31.981Z,5.73
2018-08-20T20:06:59.865Z,6.07
2018-08-20T20:09:27.701Z,5.55
2018-08-20T20:11:55.576Z,5.50
2018-08-20T20:14:23.704Z,5.43
2018-08-20T20:16:52.229Z,5.33
2018-08-20T20:19:20.169Z,5.53
2018-08-20T20:21:48.054Z,5.40
2018-08-20T20:24:15.927Z,4.93
2018-08-20T20:26:43.757Z,5.43
2018-08-20T20:29:11.970Z,5.30
2018-08-20T20:31:40.938Z,5.27
2018-08-20T20:34:08.836Z,4.60
2018-08-20T20:36:36.775Z,5.50
2018-08-20T20:39:06.971Z,5.30
2018-08-20T20:41:34.916Z,5.10
2018-08-20T20:44:02.899Z,5.30
2018-08-20T20:46:30.827Z,4.73
2018-08-20T20:48:58.733Z,4.90
2018-08-20T20:51:26.690Z,4.97
2018-08-20T20:53:54.635Z,4.60
2018-08-20T20:56:23.371Z,5.00
2018-08-20T20:58:51.293Z,4.47
2018-08-20T21:01:19.212Z,5.30
2018-08-20T21:03:47.126Z,5.00
2018-08-20T21:06:15.030Z,4.70
2018-08-20T21:08:47.984Z,4.90
2018-08-20T21:11:16.415Z,4.80
2018-08-20T21:13:44.774Z,5.00
2018-08-20T21:16:13.899Z,4.67
2018-08-20T21:18:44.674Z,4.97
2018-08-20T21:21:14.523Z,4.77
2018-08-20T21:23:42.450Z,5.50
2018-08-20T21:26:10.881Z,5.03
2018-08-20T21:28:44.330Z,4.67
2018-08-20T21:31:12.850Z,4.53
2018-08-20T21:33:42.014Z,4.20
2018-08-20T21:36:10.440Z,3.80
2018-08-20T21:38:38.331Z,3.70
2018-08-20T21:41:06.211Z,3.40
2018-08-20T21:43:39.548Z,3.73
2018-08-20T21:46:07.550Z,3.90
2018-08-20T21:48:35.529Z,3.50
2018-08-20T21:51:07.021Z,3.40
2018-08-20T21:53:38.791Z,3.50
2018-08-20T21:56:09.633Z,3.20
2018-08-20T21:58:38.898Z,3.33
2018-08-20T22:01:07.207Z,3.20
2018-08-20T22:03:35.069Z,3.30
2018-08-20T22:06:03.063Z,3.30
2018-08-20T22:08:30.998Z,3.30
2018-08-20T22:10:58.887Z,3.20
2018-08-20T22:13:26.868Z,3.23
2018-08-20T22:16:05.297Z,3.40
2018-08-20T22:18:38.543Z,3.07
2018-08-20T22:21:09.884Z,3.60
2018-08-20T22:23:39.286Z,2.80
2018-08-20T22:26:08.267Z,2.90
2018-08-20T22:28:36.153Z,2.97
2018-08-20T22:31:04.287Z,2.80
2018-08-20T22:33:32.332Z,2.70
2018-08-20T22:36:00.334Z,2.63
2018-08-20T22:38:28.247Z,2.70
2018-08-20T22:40:56.245Z,3.00
2018-08-20T22:43:24.133Z,2.90
2018-08-20T22:45:52.034Z,2.60
2018-08-20T22:48:19.924Z,2.67
2018-08-20T22:50:53.170Z,2.40
2018-08-20T22:53:25.406Z,2.40
2018-08-20T22:56:09.812Z,2.50
2018-08-20T22:58:37.710Z,2.43
2018-08-20T23:01:05.647Z,2.60
2018-08-20T23:03:33.537Z,2.60
2018-08-20T23:06:01.477Z,2.50
2018-08-20T23:08:31.102Z,2.80
2018-08-20T23:10:59.151Z,2.40
2018-08-20T23:13:27.272Z,2.70
2018-08-20T23:15:55.184Z,2.50
2018-08-20T23:18:23.104Z,2.60
2018-08-20T23:20:51.033Z,2.80
2018-08-20T23:23:27.310Z,2.53
2018-08-20T23:25:59.513Z,2.10
2018-08-20T23:28:27.537Z,2.90
2018-08-20T23:30:59.936Z,2.80
2018-08-20T23:33:29.349Z,2.95
2018-08-20T23:35:57.357Z,2.70
2018-08-20T23:38:25.519Z,2.80
2018-08-20T23:40:53.477Z,2.37
2018-08-20T23:43:21.430Z,2.50
2018-08-20T23:45:49.423Z,2.53
2018-08-20T23:48:17.324Z,2.60
2018-08-20T23:50:47.767Z,2.70
2018-08-20T23:55:42.797Z,2.50
2018-08-20T23:58:10.757Z,2.60
